Time;durP1;ratioP1;P1;durP2;ratioP2;P2;SDS_P1;SDS_P2;PMS_P1;PMS_P2;Temp;Humidity;BMP_temperature;BMP_pressure;BME280_temperature;BME280_humidity;BME280_pressure;Samples;Min_cycle;Max_cycle;Signal;HPM_P1;HPM_P2
2021/10/05 00:02:23;;;;;;;2.00;1.80;;;10.40;99.90;;;;;;5063518;28;20612;-48
2021/10/05 00:04:51;;;;;;;2.60;1.50;;;10.40;99.90;;;;;;5053736;28;20218;-49
2021/10/05 00:07:18;;;;;;;2.17;1.30;;;10.40;99.90;;;;;;5063461;28;20248;-50
2021/10/05 00:09:44;;;;;;;2.60;1.17;;;10.40;99.90;;;;;;5059303;28;20218;-45
2021/10/05 00:12:11;;;;;;;2.77;1.40;;;10.40;99.90;;;;;;5058235;28;20967;-50
2021/10/05 00:14:38;;;;;;;2.70;1.57;;;10.40;99.90;;;;;;5052854;28;20210;-52
2021/10/05 00:17:05;;;;;;;4.13;1.47;;;10.40;99.90;;;;;;5060414;28;20191;-47
2021/10/05 00:19:31;;;;;;;1.50;1.40;;;10.40;99.90;;;;;;5053512;28;20209;-47
2021/10/05 00:21:59;;;;;;;5.40;1.40;;;10.40;99.90;;;;;;5059091;28;20229;-48
2021/10/05 00:24:26;;;;;;;2.50;1.10;;;10.40;99.90;;;;;;5063422;28;20226;-45
2021/10/05 00:26:52;;;;;;;2.27;1.40;;;10.30;99.90;;;;;;5053543;28;20338;-51
2021/10/05 00:29:19;;;;;;;2.03;1.50;;;10.30;99.90;;;;;;5056306;28;20655;-48
2021/10/05 00:31:46;;;;;;;3.00;1.60;;;10.30;99.90;;;;;;5060414;28;20706;-56
2021/10/05 00:34:12;;;;;;;2.30;1.23;;;10.20;99.90;;;;;;5053865;28;20203;-45
2021/10/05 00:36:39;;;;;;;2.47;1.40;;;10.20;99.90;;;;;;5061207;28;20199;-54
2021/10/05 00:39:07;;;;;;;1.23;1.13;;;10.30;99.90;;;;;;5060723;28;20182;-45
2021/10/05 00:41:34;;;;;;;1.53;1.10;;;10.20;99.90;;;;;;5051262;28;20222;-49
2021/10/05 00:44:01;;;;;;;1.80;1.30;;;10.20;99.90;;;;;;5047965;28;20259;-45
2021/10/05 00:46:28;;;;;;;1.60;1.50;;;10.20;99.90;;;;;;5059362;28;20206;-45
2021/10/05 00:48:55;;;;;;;2.70;1.50;;;10.20;99.90;;;;;;5059135;28;20896;-50
2021/10/05 00:51:23;;;;;;;2.47;1.53;;;10.20;99.90;;;;;;5054064;28;20218;-45
2021/10/05 00:53:50;;;;;;;1.63;1.53;;;10.20;99.90;;;;;;5054391;28;20548;-57
2021/10/05 00:56:18;;;;;;;1.40;1.30;;;10.20;99.90;;;;;;5063335;28;20210;-47
2021/10/05 00:58:44;;;;;;;1.87;1.60;;;10.20;99.90;;;;;;5050681;28;20581;-59
2021/10/05 01:01:12;;;;;;;1.27;1.20;;;10.10;99.90;;;;;;5049157;28;20214;-50
2021/10/05 01:03:39;;;;;;;1.60;1.50;;;10.10;99.90;;;;;;5061746;28;20257;-50
2021/10/05 01:06:06;;;;;;;1.73;1.60;;;10.10;99.90;;;;;;5052268;28;20209;-50
2021/10/05 01:08:33;;;;;;;1.63;1.53;;;10.10;99.90;;;;;;5056868;28;20813;-52
2021/10/05 01:11:00;;;;;;;2.20;1.57;;;10.10;99.90;;;;;;5062233;28;20213;-50
2021/10/05 01:13:28;;;;;;;1.60;1.50;;;10.10;99.90;;;;;;5054575;28;20237;-47
2021/10/05 01:15:55;;;;;;;2.67;1.63;;;10.10;99.90;;;;;;5051782;28;20214;-45
2021/10/05 01:18:22;;;;;;;1.60;1.20;;;10.10;99.90;;;;;;5058715;28;20202;-56
2021/10/05 01:20:56;;;;;;;2.93;1.60;;;10.10;99.90;;;;;;5060028;28;20217;-48
2021/10/05 01:23:24;;;;;;;4.23;1.80;;;10.10;99.90;;;;;;5053271;28;20221;-50
2021/10/05 01:25:51;;;;;;;2.13;1.70;;;10.10;99.90;;;;;;5052602;28;20219;-46
2021/10/05 01:28:19;;;;;;;3.93;1.53;;;10.10;99.90;;;;;;5048440;28;20205;-53
2021/10/05 01:30:46;;;;;;;4.63;1.50;;;10.10;99.90;;;;;;5061455;28;20214;-46
2021/10/05 01:33:13;;;;;;;3.73;1.67;;;10.10;99.90;;;;;;5054602;28;20234;-47
2021/10/05 01:35:40;;;;;;;2.30;1.80;;;10.10;99.90;;;;;;5066853;28;20899;-49
2021/10/05 01:38:08;;;;;;;1.70;1.53;;;10.10;99.90;;;;;;5064517;28;20210;-54
2021/10/05 01:40:35;;;;;;;4.23;1.83;;;10.10;99.90;;;;;;5061640;28;20202;-48
2021/10/05 01:43:01;;;;;;;3.77;1.80;;;10.10;99.90;;;;;;5067907;28;20219;-46
2021/10/05 01:45:29;;;;;;;3.53;1.70;;;10.10;99.90;;;;;;5050408;28;20214;-48
2021/10/05 01:47:56;;;;;;;2.17;1.40;;;10.10;99.90;;;;;;5056061;28;20199;-49
2021/10/05 01:50:23;;;;;;;2.07;1.60;;;10.10;99.90;;;;;;5057734;28;20202;-52
2021/10/05 01:52:50;;;;;;;4.80;1.80;;;10.10;99.90;;;;;;5065090;28;20726;-50
2021/10/05 01:55:17;;;;;;;1.57;1.47;;;10.10;99.90;;;;;;5054652;28;20206;-48
2021/10/05 01:57:44;;;;;;;2.83;1.53;;;10.10;99.90;;;;;;5068574;28;20197;-48
2021/10/05 02:00:11;;;;;;;2.20;1.77;;;10.10;99.90;;;;;;5065732;28;20203;-48
2021/10/05 02:02:38;;;;;;;2.73;1.67;;;10.10;99.90;;;;;;5052696;28;22537;-47
2021/10/05 02:05:05;;;;;;;1.93;1.70;;;10.10;99.90;;;;;;5068617;28;20223;-45
2021/10/05 02:07:32;;;;;;;2.07;1.70;;;10.10;99.90;;;;;;5060139;28;20195;-45
2021/10/05 02:09:59;;;;;;;3.30;2.20;;;10.10;99.90;;;;;;5057373;28;20206;-50
2021/10/05 02:12:27;;;;;;;2.97;1.53;;;10.00;99.90;;;;;;5060820;28;20222;-54
2021/10/05 02:14:55;;;;;;;1.93;1.50;;;10.00;99.90;;;;;;5066052;28;20206;-46
2021/10/05 02:17:21;;;;;;;1.80;1.70;;;10.00;99.90;;;;;;5056171;28;20202;-55
2021/10/05 02:19:48;;;;;;;1.53;1.43;;;10.00;99.90;;;;;;5054250;28;20305;-48
2021/10/05 02:22:15;;;;;;;2.47;1.80;;;10.00;99.90;;;;;;5063307;28;20218;-56
2021/10/05 02:24:41;;;;;;;1.60;1.50;;;10.00;99.90;;;;;;5063852;28;20519;-50
2021/10/05 02:27:08;;;;;;;1.90;1.60;;;10.00;99.90;;;;;;5056492;28;20609;-55
2021/10/05 02:29:37;;;;;;;3.67;1.67;;;10.00;99.90;;;;;;5059900;28;20206;-47
2021/10/05 02:32:04;;;;;;;1.93;1.63;;;10.00;99.90;;;;;;5059394;28;20234;-47
2021/10/05 02:34:31;;;;;;;2.00;1.50;;;10.10;99.90;;;;;;5048412;28;20195;-51
2021/10/05 02:36:57;;;;;;;2.23;1.43;;;10.10;99.90;;;;;;5068404;28;20256;-48
2021/10/05 02:39:24;;;;;;;3.10;1.60;;;10.00;99.90;;;;;;5061336;28;20207;-51
2021/10/05 02:41:51;;;;;;;1.63;1.43;;;10.00;99.90;;;;;;5057336;28;20229;-49
2021/10/05 02:44:18;;;;;;;5.63;1.60;;;10.00;99.90;;;;;;5062108;28;20220;-51
2021/10/05 02:46:46;;;;;;;2.10;1.70;;;10.00;99.90;;;;;;5058059;28;20203;-49
2021/10/05 02:49:13;;;;;;;2.97;1.60;;;10.00;99.90;;;;;;5060766;28;20711;-53
2021/10/05 02:51:40;;;;;;;4.13;1.90;;;10.00;99.90;;;;;;5052349;28;20225;-48
2021/10/05 02:54:06;;;;;;;1.50;1.40;;;10.00;99.90;;;;;;5062077;28;20260;-52
2021/10/05 02:56:34;;;;;;;2.60;2.00;;;10.00;99.90;;;;;;5065987;28;20210;-48
2021/10/05 02:59:00;;;;;;;1.67;1.57;;;10.00;99.90;;;;;;5057895;28;20199;-48
2021/10/05 03:01:27;;;;;;;1.70;1.60;;;10.00;99.90;;;;;;5062551;28;20202;-50
2021/10/05 03:03:55;;;;;;;2.00;1.37;;;10.00;99.90;;;;;;5062561;28;20205;-46
2021/10/05 03:06:22;;;;;;;2.77;2.13;;;10.00;99.90;;;;;;5025724;28;21234;-52
2021/10/05 03:08:52;;;;;;;2.03;1.80;;;10.00;99.90;;;;;;5064748;28;20207;-51
2021/10/05 03:11:19;;;;;;;3.93;2.00;;;10.00;99.90;;;;;;5065173;28;20189;-51
2021/10/05 03:13:45;;;;;;;2.60;1.77;;;9.90;99.90;;;;;;5063418;28;20198;-50
2021/10/05 03:16:12;;;;;;;2.80;1.50;;;10.00;99.90;;;;;;5062076;28;20194;-50
2021/10/05 03:18:41;;;;;;;1.60;1.50;;;10.00;99.90;;;;;;5058282;28;20202;-48
2021/10/05 03:21:09;;;;;;;2.13;1.53;;;10.00;99.90;;;;;;5053952;28;20233;-54
2021/10/05 03:23:35;;;;;;;1.40;1.30;;;10.00;99.90;;;;;;5064038;28;20235;-48
2021/10/05 03:26:04;;;;;;;3.07;1.60;;;10.00;99.90;;;;;;5062547;28;20578;-56
2021/10/05 03:28:31;;;;;;;3.00;1.80;;;9.90;99.90;;;;;;5056242;28;20206;-50
2021/10/05 03:30:58;;;;;;;2.93;1.50;;;9.90;99.90;;;;;;5062675;28;20190;-55
2021/10/05 03:33:25;;;;;;;2.10;1.90;;;9.90;99.90;;;;;;5054282;28;20230;-45
2021/10/05 03:35:52;;;;;;;2.63;1.70;;;9.90;99.90;;;;;;5057797;28;20205;-56
2021/10/05 03:38:22;;;;;;;2.10;1.90;;;9.90;99.90;;;;;;5054853;28;20209;-45
2021/10/05 03:40:49;;;;;;;2.77;2.30;;;9.90;99.90;;;;;;5063699;28;20277;-45
2021/10/05 03:43:15;;;;;;;3.50;2.03;;;9.90;99.90;;;;;;5054348;28;20222;-45
2021/10/05 03:45:42;;;;;;;2.53;1.93;;;9.90;99.90;;;;;;5056890;28;20226;-52
2021/10/05 03:48:09;;;;;;;1.90;1.67;;;9.90;99.90;;;;;;5060333;28;20202;-57
2021/10/05 03:50:35;;;;;;;2.00;1.80;;;9.90;99.90;;;;;;5051427;28;20212;-50
2021/10/05 03:53:02;;;;;;;3.23;2.00;;;9.90;99.90;;;;;;5055686;28;20714;-49
2021/10/05 03:55:30;;;;;;;2.10;1.90;;;9.90;99.90;;;;;;5061566;28;20203;-48
2021/10/05 03:57:56;;;;;;;2.37;1.93;;;9.90;99.90;;;;;;5067685;28;20206;-46
2021/10/05 04:00:23;;;;;;;4.03;2.10;;;9.90;99.90;;;;;;5052865;28;22241;-50
2021/10/05 04:02:49;;;;;;;2.47;1.97;;;9.90;99.90;;;;;;5062930;28;20218;-50
2021/10/05 04:05:16;;;;;;;2.30;2.10;;;9.90;99.90;;;;;;5051317;28;20237;-52
2021/10/05 04:07:43;;;;;;;1.83;1.73;;;9.90;99.90;;;;;;5055565;28;20240;-52
2021/10/05 04:10:09;;;;;;;4.67;2.20;;;9.90;99.90;;;;;;5065459;28;20202;-57
2021/10/05 04:12:37;;;;;;;3.57;2.20;;;9.90;99.90;;;;;;5062889;28;20229;-46
2021/10/05 04:15:05;;;;;;;4.03;1.97;;;9.90;99.90;;;;;;5056230;28;20203;-51
2021/10/05 04:17:32;;;;;;;3.83;2.80;;;9.90;99.90;;;;;;5064610;28;20218;-47
2021/10/05 04:19:59;;;;;;;3.53;2.47;;;9.90;99.90;;;;;;5069119;28;20686;-44
2021/10/05 04:22:28;;;;;;;2.30;2.10;;;9.90;99.90;;;;;;5045214;28;20260;-49
2021/10/05 04:24:54;;;;;;;3.70;2.40;;;9.90;99.90;;;;;;5062097;28;20222;-58
2021/10/05 04:27:21;;;;;;;2.33;2.13;;;9.90;99.90;;;;;;5055150;28;20202;-50
2021/10/05 04:29:50;;;;;;;3.77;2.00;;;9.90;99.90;;;;;;5065209;28;20670;-45
2021/10/05 04:32:16;;;;;;;2.87;2.30;;;9.80;99.90;;;;;;5052452;28;20230;-46
2021/10/05 04:34:44;;;;;;;3.27;2.50;;;9.80;99.90;;;;;;5061063;28;20213;-47
2021/10/05 04:37:10;;;;;;;4.63;2.97;;;9.80;99.90;;;;;;5052740;28;20214;-57
2021/10/05 04:39:37;;;;;;;2.80;2.60;;;9.90;99.90;;;;;;5052412;28;20573;-46
2021/10/05 04:42:05;;;;;;;3.33;2.60;;;9.90;99.90;;;;;;5058071;28;20731;-57
2021/10/05 04:44:31;;;;;;;4.53;2.07;;;9.90;99.90;;;;;;5062718;28;20556;-47
2021/10/05 04:46:59;;;;;;;5.10;2.70;;;9.90;99.90;;;;;;5060198;28;20709;-51
2021/10/05 04:49:26;;;;;;;3.00;2.43;;;9.90;99.90;;;;;;5055321;28;20206;-49
2021/10/05 04:51:53;;;;;;;3.83;2.63;;;9.80;99.90;;;;;;5050121;28;20218;-49
2021/10/05 04:54:20;;;;;;;2.93;2.63;;;9.80;99.90;;;;;;5045984;28;20195;-47
2021/10/05 04:56:48;;;;;;;5.80;2.87;;;9.90;99.90;;;;;;5059393;28;20190;-47
2021/10/05 04:59:16;;;;;;;4.47;3.00;;;9.90;99.90;;;;;;5043314;28;20195;-46
2021/10/05 05:01:43;;;;;;;4.20;3.07;;;9.90;99.90;;;;;;5062043;28;20226;-49
2021/10/05 05:04:11;;;;;;;3.87;2.30;;;9.90;99.90;;;;;;5055703;28;20214;-50
2021/10/05 05:06:38;;;;;;;3.10;2.80;;;9.90;99.90;;;;;;5060120;28;20215;-52
2021/10/05 05:09:05;;;;;;;5.20;2.90;;;9.90;99.90;;;;;;5053121;28;20210;-50
2021/10/05 05:11:31;;;;;;;3.10;2.50;;;9.90;99.90;;;;;;5065148;28;20690;-49
2021/10/05 05:13:58;;;;;;;4.37;2.30;;;9.90;99.90;;;;;;5065519;28;20198;-47
2021/10/05 05:16:25;;;;;;;4.47;2.90;;;10.00;99.90;;;;;;5060131;28;20273;-51
2021/10/05 05:18:52;;;;;;;3.57;2.60;;;10.00;99.90;;;;;;5060101;28;20202;-46
2021/10/05 05:21:20;;;;;;;2.80;2.60;;;10.00;99.90;;;;;;5053080;28;21770;-53
2021/10/05 05:23:46;;;;;;;3.47;2.47;;;10.00;99.90;;;;;;5066257;28;20202;-52
2021/10/05 05:26:13;;;;;;;6.63;3.67;;;10.00;99.90;;;;;;5051569;28;20741;-51
2021/10/05 05:28:40;;;;;;;2.83;2.63;;;10.00;99.90;;;;;;5065442;28;20194;-49
2021/10/05 05:31:07;;;;;;;4.43;2.93;;;10.00;99.90;;;;;;5053508;28;20210;-53
2021/10/05 05:33:34;;;;;;;5.13;3.23;;;10.00;99.90;;;;;;5056972;28;20222;-46
2021/10/05 05:36:01;;;;;;;4.10;3.10;;;10.00;99.90;;;;;;5056712;28;20205;-51
2021/10/05 05:38:29;;;;;;;4.87;3.23;;;10.00;99.90;;;;;;5061609;28;20735;-50
2021/10/05 05:40:55;;;;;;;3.40;2.90;;;10.00;99.90;;;;;;5053223;28;20225;-50
2021/10/05 05:43:22;;;;;;;2.93;2.53;;;10.00;99.90;;;;;;5060335;28;20225;-51
2021/10/05 05:45:49;;;;;;;4.97;3.07;;;10.00;99.90;;;;;;5056860;28;20218;-52
2021/10/05 05:48:16;;;;;;;4.03;3.00;;;10.00;99.90;;;;;;5060634;28;20977;-51
2021/10/05 05:50:42;;;;;;;3.67;3.27;;;10.00;99.90;;;;;;5050765;28;20209;-53
2021/10/05 05:53:09;;;;;;;3.23;2.93;;;10.10;99.90;;;;;;5052801;28;20215;-54
2021/10/05 05:55:37;;;;;;;4.00;3.03;;;10.10;99.90;;;;;;5057971;28;20202;-50
2021/10/05 05:58:09;;;;;;;4.60;2.80;;;10.10;99.90;;;;;;5056461;28;20213;-50
2021/10/05 06:00:36;;;;;;;4.70;2.83;;;10.10;99.90;;;;;;5066030;28;20268;-52
2021/10/05 06:03:02;;;;;;;4.27;3.77;;;10.10;99.90;;;;;;5056431;28;20237;-51
2021/10/05 06:05:29;;;;;;;6.27;3.00;;;10.10;99.90;;;;;;5058174;28;20218;-55
2021/10/05 06:07:56;;;;;;;3.77;3.43;;;10.10;99.90;;;;;;5051232;28;20201;-50
2021/10/05 06:10:23;;;;;;;4.37;3.10;;;10.10;99.90;;;;;;5054532;28;20197;-49
2021/10/05 06:12:53;;;;;;;5.73;3.40;;;10.10;99.90;;;;;;5062367;28;20699;-48
2021/10/05 06:15:20;;;;;;;4.80;3.60;;;10.10;99.90;;;;;;5064041;28;20256;-49
2021/10/05 06:17:49;;;;;;;4.53;3.20;;;10.10;99.90;;;;;;5062486;28;20202;-47
2021/10/05 06:20:19;;;;;;;6.17;3.87;;;10.10;99.90;;;;;;5056644;28;20268;-50
2021/10/05 06:22:46;;;;;;;5.90;3.33;;;10.10;99.90;;;;;;5058296;28;20568;-45
2021/10/05 06:25:15;;;;;;;4.83;3.90;;;10.10;99.90;;;;;;5058971;28;20197;-49
2021/10/05 06:27:42;;;;;;;3.80;3.50;;;10.10;99.90;;;;;;5054305;28;20211;-56
2021/10/05 06:30:12;;;;;;;6.23;3.70;;;10.10;99.90;;;;;;5048049;28;20210;-51
2021/10/05 06:32:40;;;;;;;5.40;3.67;;;10.20;99.90;;;;;;5063217;28;20249;-57
2021/10/05 06:35:08;;;;;;;5.17;3.47;;;10.20;99.90;;;;;;5047423;28;20203;-49
2021/10/05 06:37:34;;;;;;;6.67;4.47;;;10.20;99.90;;;;;;5056921;28;20206;-56
2021/10/05 06:40:01;;;;;;;5.57;3.93;;;10.20;99.90;;;;;;5060612;28;20209;-48
2021/10/05 06:42:33;;;;;;;6.87;4.03;;;10.20;99.90;;;;;;5055048;28;20624;-56
2021/10/05 06:45:00;;;;;;;4.60;3.63;;;10.20;99.90;;;;;;5027712;28;20198;-49
2021/10/05 06:47:27;;;;;;;6.70;4.43;;;10.30;99.90;;;;;;5051848;28;20218;-48
2021/10/05 06:49:54;;;;;;;8.47;5.13;;;10.30;99.90;;;;;;5052891;28;20195;-47
2021/10/05 06:52:21;;;;;;;5.20;4.70;;;10.30;99.90;;;;;;5054764;28;20219;-49
2021/10/05 06:54:47;;;;;;;5.27;4.63;;;10.40;99.90;;;;;;5058569;28;20209;-48
2021/10/05 06:57:14;;;;;;;5.47;4.50;;;10.50;99.90;;;;;;5049234;28;20750;-47
2021/10/05 06:59:41;;;;;;;8.73;4.50;;;10.50;99.90;;;;;;5066304;28;20297;-56
2021/10/05 07:02:08;;;;;;;4.97;4.33;;;10.50;99.90;;;;;;5063117;28;20601;-47
2021/10/05 07:04:36;;;;;;;4.27;3.40;;;10.60;99.90;;;;;;5050437;28;20249;-51
2021/10/05 07:07:03;;;;;;;4.67;3.73;;;10.60;99.90;;;;;;5052757;28;20589;-48
2021/10/05 07:09:29;;;;;;;5.17;3.87;;;10.70;99.90;;;;;;5053454;28;20272;-48
2021/10/05 07:11:56;;;;;;;5.67;3.80;;;10.70;99.90;;;;;;5056678;28;20218;-47
2021/10/05 07:14:22;;;;;;;5.13;3.93;;;10.70;99.90;;;;;;5045630;28;20198;-47
2021/10/05 07:16:49;;;;;;;8.07;4.30;;;10.80;99.90;;;;;;5062688;28;20187;-48
2021/10/05 07:19:16;;;;;;;5.80;4.17;;;10.80;99.90;;;;;;5056285;28;20201;-51
2021/10/05 07:21:44;;;;;;;8.27;4.30;;;10.80;99.90;;;;;;5047691;28;20230;-49
2021/10/05 07:24:10;;;;;;;6.47;3.63;;;10.80;99.90;;;;;;5049052;28;21946;-48
2021/10/05 07:26:37;;;;;;;7.23;4.37;;;10.80;99.90;;;;;;5055261;28;20214;-49
2021/10/05 07:29:04;;;;;;;6.47;4.63;;;10.80;99.90;;;;;;5045788;28;20207;-45
2021/10/05 07:31:34;;;;;;;5.10;4.10;;;10.80;99.90;;;;;;5047049;28;20206;-52
2021/10/05 07:34:01;;;;;;;4.27;3.63;;;10.90;99.90;;;;;;5060289;28;20622;-49
2021/10/05 07:36:28;;;;;;;5.17;3.77;;;10.90;99.90;;;;;;5047915;28;20206;-53
2021/10/05 07:38:56;;;;;;;4.37;3.97;;;10.90;99.90;;;;;;5056654;28;20199;-47
2021/10/05 07:41:23;;;;;;;6.07;4.10;;;10.90;99.90;;;;;;5056288;28;20614;-50
2021/10/05 07:43:50;;;;;;;6.33;4.47;;;11.00;99.90;;;;;;5054814;28;20203;-46
2021/10/05 07:46:17;;;;;;;5.07;4.10;;;11.00;99.90;;;;;;5050159;28;20211;-49
2021/10/05 07:48:44;;;;;;;5.97;3.83;;;11.10;99.90;;;;;;5055192;28;20222;-47
2021/10/05 07:51:11;;;;;;;6.67;4.13;;;11.10;99.90;;;;;;5058161;28;20214;-50
2021/10/05 07:53:37;;;;;;;10.60;4.50;;;11.10;99.90;;;;;;5047050;28;20987;-48
2021/10/05 07:56:07;;;;;;;4.67;4.27;;;11.20;99.90;;;;;;5053933;28;20202;-50
2021/10/05 07:58:34;;;;;;;5.83;4.40;;;11.20;99.90;;;;;;5059213;28;20252;-56
2021/10/05 08:01:00;;;;;;;6.70;4.07;;;11.20;99.90;;;;;;5046350;28;20217;-48
2021/10/05 08:03:27;;;;;;;4.77;4.30;;;11.30;99.90;;;;;;5053260;28;20220;-56
2021/10/05 08:05:53;;;;;;;4.73;4.33;;;11.30;99.90;;;;;;5058097;28;20197;-48
2021/10/05 08:08:20;;;;;;;4.70;4.30;;;11.40;99.90;;;;;;5055073;28;20198;-49
2021/10/05 08:10:47;;;;;;;5.37;4.73;;;11.40;99.90;;;;;;5051899;28;20257;-46
2021/10/05 08:13:15;;;;;;;4.80;3.80;;;11.50;99.90;;;;;;5053890;28;20223;-52
2021/10/05 08:15:41;;;;;;;6.27;3.90;;;11.50;99.90;;;;;;5041285;28;20203;-47
2021/10/05 08:18:08;;;;;;;4.90;3.83;;;11.50;99.90;;;;;;5061630;28;20592;-49
2021/10/05 08:20:35;;;;;;;4.33;3.93;;;11.50;99.90;;;;;;5053777;28;20202;-53
2021/10/05 08:23:02;;;;;;;7.03;3.90;;;11.60;99.90;;;;;;5057034;28;20222;-50
2021/10/05 08:25:28;;;;;;;4.57;3.93;;;11.60;99.90;;;;;;5051536;28;20202;-49
2021/10/05 08:27:55;;;;;;;4.23;3.80;;;11.60;99.90;;;;;;5053284;28;22937;-48
2021/10/05 08:30:24;;;;;;;6.67;4.03;;;11.60;99.90;;;;;;5054856;28;20211;-53
2021/10/05 08:32:51;;;;;;;4.43;4.07;;;11.70;99.90;;;;;;5052608;28;20230;-48
2021/10/05 08:35:19;;;;;;;5.20;4.60;;;11.70;99.90;;;;;;5055636;28;20222;-48
2021/10/05 08:37:45;;;;;;;6.27;4.20;;;11.70;99.90;;;;;;5052179;28;20458;-49
2021/10/05 08:40:13;;;;;;;7.07;4.40;;;11.70;99.90;;;;;;5053595;28;20214;-52
2021/10/05 08:42:40;;;;;;;6.10;4.53;;;11.70;99.90;;;;;;5051300;28;20237;-48
2021/10/05 08:45:09;;;;;;;5.63;4.57;;;11.80;99.90;;;;;;5056764;28;20611;-45
2021/10/05 08:47:37;;;;;;;5.07;4.57;;;11.80;99.90;;;;;;5044131;28;20207;-45
2021/10/05 08:50:04;;;;;;;5.97;4.47;;;11.90;99.90;;;;;;5058138;28;20199;-50
2021/10/05 08:52:31;;;;;;;5.73;4.67;;;11.90;99.90;;;;;;5053911;28;20805;-49
2021/10/05 08:54:58;;;;;;;5.63;4.50;;;12.00;99.90;;;;;;5057297;28;20607;-51
2021/10/05 08:57:25;;;;;;;7.83;5.37;;;12.00;99.90;;;;;;5047524;28;20546;-56
2021/10/05 08:59:51;;;;;;;7.47;5.03;;;12.00;99.90;;;;;;5051412;28;20218;-50
2021/10/05 09:02:20;;;;;;;5.60;4.70;;;12.00;99.90;;;;;;5048780;28;20222;-58
2021/10/05 09:04:48;;;;;;;5.50;5.00;;;12.10;99.90;;;;;;5052046;28;20199;-51
2021/10/05 09:07:15;;;;;;;5.57;5.07;;;12.10;99.90;;;;;;5055925;28;20219;-56
2021/10/05 09:09:52;;;;;;;7.27;5.27;;;12.10;99.90;;;;;;5054105;28;20209;-49
2021/10/05 09:12:23;;;;;;;6.70;4.50;;;12.10;99.90;;;;;;5045759;28;20213;-48
2021/10/05 09:14:50;;;;;;;5.13;4.63;;;12.20;99.90;;;;;;5051045;28;20191;-49
2021/10/05 09:17:20;;;;;;;5.90;5.30;;;12.20;99.90;;;;;;5051338;28;20198;-48
2021/10/05 09:19:48;;;;;;;5.10;4.60;;;12.30;99.90;;;;;;5046720;28;20743;-50
2021/10/05 09:22:17;;;;;;;5.40;4.87;;;12.30;99.90;;;;;;5048208;28;20210;-46
2021/10/05 09:24:47;;;;;;;6.70;5.07;;;12.30;99.90;;;;;;5059019;28;20249;-48
2021/10/05 09:27:14;;;;;;;5.87;4.77;;;12.30;99.90;;;;;;5038372;28;20229;-46
2021/10/05 09:29:41;;;;;;;4.90;4.50;;;12.30;99.90;;;;;;5060683;28;20198;-46
2021/10/05 09:32:09;;;;;;;5.63;4.60;;;12.40;99.90;;;;;;5047502;28;20238;-48
2021/10/05 09:34:39;;;;;;;5.03;4.23;;;12.40;99.90;;;;;;5054142;28;20217;-49
2021/10/05 09:37:10;;;;;;;5.13;4.30;;;12.50;99.90;;;;;;5052507;28;20195;-47
2021/10/05 09:39:42;;;;;;;4.50;4.07;;;12.50;99.90;;;;;;5055746;28;20682;-48
2021/10/05 09:42:10;;;;;;;4.37;3.97;;;12.50;99.90;;;;;;5055886;28;20276;-48
2021/10/05 09:44:37;;;;;;;4.40;4.00;;;12.60;99.90;;;;;;5048747;28;20190;-48
2021/10/05 09:47:04;;;;;;;4.30;3.83;;;12.60;99.90;;;;;;5048468;28;20938;-48
2021/10/05 09:49:41;;;;;;;4.80;4.10;;;12.70;99.90;;;;;;5050743;28;20214;-47
2021/10/05 09:52:12;;;;;;;4.47;4.00;;;12.70;99.90;;;;;;5053777;28;20311;-48
2021/10/05 09:54:39;;;;;;;3.90;3.50;;;12.80;99.90;;;;;;5062003;28;20543;-51
2021/10/05 09:57:08;;;;;;;4.03;3.63;;;12.80;99.90;;;;;;5057750;28;20195;-48
2021/10/05 09:59:34;;;;;;;5.43;4.00;;;12.80;99.90;;;;;;5056766;28;20233;-53
2021/10/05 10:02:02;;;;;;;4.57;3.53;;;12.80;99.90;;;;;;5052008;28;20860;-48
2021/10/05 10:04:29;;;;;;;4.97;3.67;;;12.80;99.90;;;;;;5046942;28;20260;-49
2021/10/05 10:06:57;;;;;;;4.73;3.47;;;12.90;99.90;;;;;;5058385;28;20223;-51
2021/10/05 10:09:26;;;;;;;4.20;3.60;;;12.80;99.90;;;;;;5060109;28;20686;-52
2021/10/05 10:11:53;;;;;;;4.20;3.33;;;12.80;99.90;;;;;;5063967;28;20218;-46
2021/10/05 10:14:21;;;;;;;3.90;3.40;;;12.80;99.90;;;;;;5054646;28;20218;-56
2021/10/05 10:16:49;;;;;;;4.90;3.63;;;12.80;99.90;;;;;;5056941;28;20206;-46
2021/10/05 10:19:26;;;;;;;3.97;3.33;;;12.80;99.90;;;;;;5056203;28;20206;-56
2021/10/05 10:21:53;;;;;;;5.37;3.50;;;12.80;99.90;;;;;;5056759;28;20225;-44
2021/10/05 10:24:20;;;;;;;3.47;3.17;;;12.80;99.90;;;;;;5061036;28;20191;-55
2021/10/05 10:26:55;;;;;;;3.57;3.20;;;12.80;99.90;;;;;;5059452;28;20214;-45
2021/10/05 10:29:29;;;;;;;3.80;3.37;;;12.80;99.90;;;;;;5059072;28;20210;-51
2021/10/05 10:31:56;;;;;;;3.60;3.30;;;12.70;99.90;;;;;;5058353;28;20219;-47
2021/10/05 10:34:26;;;;;;;4.00;2.60;;;12.60;99.90;;;;;;5051563;28;20698;-52
2021/10/05 10:36:53;;;;;;;3.60;3.30;;;12.60;99.90;;;;;;5054163;28;20207;-49
2021/10/05 10:39:24;;;;;;;3.30;3.00;;;12.60;99.90;;;;;;5053956;28;20202;-50
2021/10/05 10:42:03;;;;;;;3.40;3.10;;;12.60;99.90;;;;;;5058341;28;20233;-46
2021/10/05 10:44:33;;;;;;;3.70;3.40;;;12.60;99.90;;;;;;5052823;28;20766;-48
2021/10/05 10:47:09;;;;;;;3.03;2.60;;;12.60;99.90;;;;;;5057127;28;20742;-55
2021/10/05 10:49:36;;;;;;;4.13;3.07;;;12.60;99.90;;;;;;5051860;28;20237;-47
2021/10/05 10:52:03;;;;;;;3.90;3.60;;;12.60;99.90;;;;;;5056755;28;20230;-49
2021/10/05 10:54:30;;;;;;;4.03;2.80;;;12.50;99.90;;;;;;5053322;28;20203;-52
2021/10/05 10:57:05;;;;;;;2.90;2.70;;;12.60;99.90;;;;;;5062422;28;20561;-47
2021/10/05 10:59:33;;;;;;;4.07;2.83;;;12.60;99.90;;;;;;5055052;28;20186;-51
2021/10/05 11:02:02;;;;;;;3.50;3.10;;;12.60;99.90;;;;;;5053018;28;20225;-49
2021/10/05 11:04:29;;;;;;;4.33;3.07;;;12.60;99.90;;;;;;5051313;28;20854;-51
2021/10/05 11:06:58;;;;;;;3.03;2.33;;;12.60;99.90;;;;;;5056664;28;20202;-50
2021/10/05 11:09:29;;;;;;;2.97;2.70;;;12.60;99.90;;;;;;5058371;28;20206;-52
2021/10/05 11:11:58;;;;;;;2.50;2.30;;;12.60;99.90;;;;;;5062767;28;20260;-56
2021/10/05 11:14:28;;;;;;;5.53;2.60;;;12.60;99.90;;;;;;5061063;28;20202;-50
2021/10/05 11:16:57;;;;;;;2.63;2.40;;;12.60;99.90;;;;;;5057888;28;20729;-46
2021/10/05 11:19:29;;;;;;;2.33;2.13;;;12.60;99.90;;;;;;5058229;28;20191;-58
2021/10/05 11:21:57;;;;;;;2.87;2.53;;;12.60;99.90;;;;;;5060125;28;20259;-45
2021/10/05 11:24:35;;;;;;;2.40;2.20;;;12.60;99.90;;;;;;5046511;28;20214;-47
2021/10/05 11:27:09;;;;;;;3.93;2.57;;;12.60;99.90;;;;;;5058940;28;20202;-49
2021/10/05 11:29:37;;;;;;;2.87;2.60;;;12.60;99.90;;;;;;5059917;28;20195;-51
2021/10/05 11:32:06;;;;;;;3.23;2.93;;;12.70;99.90;;;;;;5054220;28;20228;-49
2021/10/05 11:34:37;;;;;;;3.10;2.80;;;12.70;99.90;;;;;;5058328;28;20188;-50
2021/10/05 11:37:05;;;;;;;4.57;2.50;;;12.70;99.90;;;;;;5054960;28;20202;-48
2021/10/05 11:39:33;;;;;;;4.87;2.93;;;12.80;99.90;;;;;;5050170;28;20891;-47
2021/10/05 11:42:04;;;;;;;4.13;2.60;;;12.80;99.90;;;;;;5061785;28;20361;-50
2021/10/05 11:44:31;;;;;;;2.67;2.47;;;12.80;99.90;;;;;;5056083;28;20256;-47
2021/10/05 11:47:01;;;;;;;2.73;2.23;;;12.80;99.90;;;;;;5051458;28;20709;-46
2021/10/05 11:49:31;;;;;;;1.97;1.87;;;12.80;99.90;;;;;;5055758;28;20195;-53
2021/10/05 11:51:59;;;;;;;2.10;2.00;;;12.70;99.90;;;;;;5052787;28;20590;-51
2021/10/05 11:54:28;;;;;;;2.00;1.90;;;12.80;99.90;;;;;;5045950;28;20199;-50
2021/10/05 11:56:55;;;;;;;2.27;2.10;;;12.70;99.90;;;;;;5060933;28;20194;-49
2021/10/05 11:59:26;;;;;;;1.87;1.77;;;12.70;99.90;;;;;;5058331;28;20664;-50
2021/10/05 12:01:57;;;;;;;2.17;2.03;;;12.80;99.90;;;;;;5062312;28;20801;-45
2021/10/05 12:04:26;;;;;;;1.90;1.80;;;12.80;99.90;;;;;;5053890;28;20202;-56
2021/10/05 12:06:54;;;;;;;2.00;1.90;;;12.80;99.90;;;;;;5053936;28;20199;-45
2021/10/05 12:09:26;;;;;;;1.80;1.70;;;12.90;99.90;;;;;;5052771;28;20233;-58
2021/10/05 12:11:58;;;;;;;2.20;2.10;;;12.90;99.90;;;;;;5061531;28;20223;-47
2021/10/05 12:14:32;;;;;;;1.60;1.50;;;13.00;99.90;;;;;;5051300;28;20199;-58
2021/10/05 12:17:00;;;;;;;2.00;1.90;;;13.10;99.90;;;;;;5061235;28;20191;-47
2021/10/05 12:19:30;;;;;;;2.43;2.23;;;13.20;99.90;;;;;;5053437;28;20229;-57
2021/10/05 12:21:58;;;;;;;1.73;1.63;;;13.30;99.90;;;;;;5057684;28;20225;-49
2021/10/05 12:24:40;;;;;;;1.80;1.70;;;13.30;99.90;;;;;;5053700;28;20230;-56
2021/10/05 12:27:06;;;;;;;1.67;1.57;;;13.30;99.90;;;;;;5055116;28;20214;-45
2021/10/05 12:29:44;;;;;;;2.10;2.00;;;13.30;99.90;;;;;;5058114;28;20197;-47
2021/10/05 12:32:11;;;;;;;1.70;1.60;;;13.40;99.90;;;;;;5061292;28;20226;-45
2021/10/05 12:34:41;;;;;;;1.90;1.80;;;13.30;99.90;;;;;;5048492;28;20210;-50
2021/10/05 12:37:10;;;;;;;2.67;1.70;;;13.30;99.90;;;;;;5058427;28;20205;-46
2021/10/05 12:39:36;;;;;;;1.67;1.57;;;13.30;99.90;;;;;;5048560;28;20229;-46
2021/10/05 12:42:06;;;;;;;1.70;1.60;;;13.30;99.90;;;;;;5046516;28;20239;-57
2021/10/05 12:44:35;;;;;;;2.27;1.73;;;13.30;99.90;;;;;;5058966;28;20194;-44
2021/10/05 12:47:06;;;;;;;1.70;1.60;;;13.20;99.90;;;;;;5060598;28;20202;-57
2021/10/05 12:49:33;;;;;;;2.03;1.80;;;13.30;99.90;;;;;;5054279;28;22521;-44
2021/10/05 12:52:03;;;;;;;1.77;1.67;;;13.30;99.90;;;;;;5060696;28;20218;-45